createdAt,value
2019-05-18T00:01:16.598Z,11.30
2019-05-18T00:03:44.968Z,11.30
2019-05-18T00:06:13.599Z,11.30
2019-05-18T00:08:41.868Z,11.20
2019-05-18T00:11:10.202Z,11.10
2019-05-18T00:13:38.478Z,11.10
2019-05-18T00:16:06.812Z,11.10
2019-05-18T00:18:35.091Z,11.10
2019-05-18T00:21:03.467Z,11.10
2019-05-18T00:23:31.747Z,11.10
2019-05-18T00:26:00.033Z,11.10
2019-05-18T00:28:28.299Z,11.10
2019-05-18T00:30:56.558Z,11.10
2019-05-18T00:33:24.870Z,11.10
2019-05-18T00:35:53.300Z,11.00
2019-05-18T00:38:21.698Z,11.00
2019-05-18T00:40:49.992Z,10.90
2019-05-18T00:43:18.255Z,10.90
2019-05-18T00:45:46.523Z,10.90
2019-05-18T00:48:14.806Z,10.90
2019-05-18T00:50:43.579Z,10.90
2019-05-18T00:53:11.856Z,10.90
2019-05-18T00:55:40.461Z,10.80
2019-05-18T00:58:10.149Z,10.80
2019-05-18T01:00:38.414Z,10.80
2019-05-18T01:03:06.698Z,10.80
2019-05-18T01:05:37.878Z,10.70
2019-05-18T01:08:04.961Z,10.70
2019-05-18T01:10:33.241Z,10.70
2019-05-18T01:13:01.498Z,10.80
2019-05-18T01:15:29.771Z,10.70
2019-05-18T01:18:01.856Z,10.70
2019-05-18T01:20:28.160Z,10.60
2019-05-18T01:22:56.735Z,10.60
2019-05-18T01:25:25.030Z,10.60
2019-05-18T01:27:53.304Z,10.70
2019-05-18T01:30:21.563Z,10.70
2019-05-18T01:32:49.847Z,10.50
2019-05-18T01:35:18.108Z,10.60
2019-05-18T01:37:46.455Z,10.50
2019-05-18T01:40:14.785Z,10.50
2019-05-18T01:42:43.093Z,10.50
2019-05-18T01:45:16.874Z,10.60
2019-05-18T01:47:42.703Z,10.50
2019-05-18T01:50:10.968Z,10.50
2019-05-18T01:52:39.557Z,10.50
2019-05-18T01:55:08.229Z,10.50
2019-05-18T01:57:36.510Z,10.40
2019-05-18T02:00:08.176Z,10.40
2019-05-18T02:02:36.620Z,10.40
2019-05-18T02:05:07.573Z,10.30
2019-05-18T02:07:35.895Z,10.40
2019-05-18T02:10:05.324Z,10.50
2019-05-18T02:12:33.596Z,10.50
2019-05-18T02:15:01.966Z,10.50
2019-05-18T02:17:30.653Z,10.40
2019-05-18T02:19:58.912Z,10.50
2019-05-18T02:22:27.177Z,10.50
2019-05-18T02:24:55.507Z,10.40
2019-05-18T02:27:23.815Z,10.40
2019-05-18T02:29:52.080Z,10.40
2019-05-18T02:32:20.365Z,10.50
2019-05-18T02:34:48.639Z,10.40
2019-05-18T02:37:16.899Z,10.30
2019-05-18T02:39:45.205Z,10.30
2019-05-18T02:42:13.532Z,10.30
2019-05-18T02:44:41.859Z,10.20
2019-05-18T02:47:11.561Z,10.30
2019-05-18T02:49:39.827Z,10.30
2019-05-18T02:52:08.225Z,10.20
2019-05-18T02:54:36.508Z,10.30
2019-05-18T02:57:04.764Z,10.20
2019-05-18T02:59:33.422Z,10.20
2019-05-18T03:02:03.344Z,10.20
2019-05-18T03:04:31.606Z,10.10
2019-05-18T03:06:59.870Z,10.20
2019-05-18T03:09:28.244Z,10.20
2019-05-18T03:11:56.514Z,10.10
2019-05-18T03:14:24.840Z,10.10
2019-05-18T03:16:53.129Z,10.10
2019-05-18T03:19:21.461Z,10.10
2019-05-18T03:21:49.730Z,10.10
2019-05-18T03:24:18.016Z,10.10
2019-05-18T03:26:46.279Z,10.10
2019-05-18T03:29:14.613Z,10.10
2019-05-18T03:31:42.931Z,10.10
2019-05-18T03:34:11.274Z,10.00
2019-05-18T03:36:39.599Z,10.00
2019-05-18T03:39:07.918Z,9.90
2019-05-18T03:41:36.211Z,9.90
2019-05-18T03:44:04.468Z,9.90
2019-05-18T03:46:32.751Z,9.90
2019-05-18T03:49:01.086Z,9.80
2019-05-18T03:51:29.333Z,9.80
2019-05-18T03:53:57.610Z,9.90
2019-05-18T03:56:25.870Z,9.80
2019-05-18T03:58:54.135Z,9.90
2019-05-18T04:01:22.487Z,10.00
2019-05-18T04:03:50.777Z,9.90
2019-05-18T04:06:19.047Z,9.90
2019-05-18T04:08:47.400Z,9.90
2019-05-18T04:11:15.657Z,9.90
2019-05-18T04:13:43.932Z,9.90
2019-05-18T04:16:12.372Z,10.00
2019-05-18T04:18:40.641Z,10.10
2019-05-18T04:21:08.911Z,10.10
2019-05-18T04:23:37.262Z,10.10
2019-05-18T04:26:05.530Z,10.10
2019-05-18T04:28:33.788Z,10.10
2019-05-18T04:31:02.081Z,10.10
2019-05-18T04:33:30.420Z,10.20
2019-05-18T04:35:58.764Z,10.20
2019-05-18T04:38:27.149Z,10.30
2019-05-18T04:40:55.463Z,10.30
2019-05-18T04:43:23.735Z,10.20
2019-05-18T04:45:52.094Z,10.30
2019-05-18T04:48:20.364Z,10.30
2019-05-18T04:50:48.719Z,10.40
2019-05-18T04:53:18.669Z,10.40
2019-05-18T04:55:47.024Z,10.50
2019-05-18T04:58:15.372Z,10.50
2019-05-18T05:00:43.662Z,10.50
2019-05-18T05:03:11.931Z,10.60
2019-05-18T05:05:40.206Z,10.60
2019-05-18T05:08:27.916Z,10.70
2019-05-18T05:10:56.179Z,10.70
2019-05-18T05:13:24.449Z,10.80
2019-05-18T05:15:53.391Z,10.80
2019-05-18T05:18:23.367Z,10.80
2019-05-18T05:20:53.264Z,10.80
2019-05-18T05:23:21.557Z,10.90
2019-05-18T05:25:51.517Z,11.00
2019-05-18T05:28:19.786Z,11.00
2019-05-18T05:30:48.146Z,11.10
2019-05-18T05:33:16.437Z,11.10
2019-05-18T05:35:44.759Z,11.10
2019-05-18T05:38:13.124Z,11.10
2019-05-18T05:40:41.387Z,11.10
2019-05-18T05:43:09.656Z,11.20
2019-05-18T05:45:37.947Z,11.20
2019-05-18T05:48:06.211Z,11.20
2019-05-18T05:50:36.342Z,11.30
2019-05-18T05:53:04.552Z,11.30
2019-05-18T05:55:32.823Z,11.30
2019-05-18T05:58:01.094Z,11.30
2019-05-18T06:00:29.474Z,11.30
2019-05-18T06:02:57.772Z,11.40
2019-05-18T06:05:26.033Z,11.30
2019-05-18T06:07:54.330Z,11.40
2019-05-18T06:10:22.634Z,11.50
2019-05-18T06:12:50.904Z,11.50
2019-05-18T06:15:21.505Z,11.50
2019-05-18T06:17:49.778Z,11.60
2019-05-18T06:20:18.049Z,11.60
2019-05-18T06:22:46.392Z,11.70
2019-05-18T06:25:14.686Z,11.60
2019-05-18T06:27:43.868Z,11.70
2019-05-18T06:30:12.792Z,11.70
2019-05-18T06:32:41.163Z,11.70
2019-05-18T06:35:11.070Z,11.80
2019-05-18T06:37:39.675Z,11.90
2019-05-18T06:40:08.384Z,11.90
2019-05-18T06:42:36.729Z,12.00
2019-05-18T06:45:09.766Z,12.10
2019-05-18T06:47:38.023Z,12.10
2019-05-18T06:50:11.237Z,12.20
2019-05-18T06:52:38.010Z,12.20
2019-05-18T06:55:09.082Z,12.20
2019-05-18T06:57:37.356Z,12.30
2019-05-18T07:00:14.543Z,12.30
2019-05-18T07:02:42.940Z,12.30
2019-05-18T07:05:11.222Z,12.40
2019-05-18T07:07:39.576Z,12.40
2019-05-18T07:10:08.580Z,12.40
2019-05-18T07:12:36.947Z,12.50
2019-05-18T07:15:07.577Z,12.50
2019-05-18T07:17:36.281Z,12.60
2019-05-18T07:20:05.491Z,12.50
2019-05-18T07:22:33.904Z,12.70
2019-05-18T07:25:02.220Z,12.70
2019-05-18T07:27:30.573Z,12.80
2019-05-18T07:29:58.858Z,12.80
2019-05-18T07:32:27.131Z,12.80
2019-05-18T07:34:55.399Z,13.00
2019-05-18T07:37:23.705Z,13.10
2019-05-18T07:39:52.041Z,13.20
2019-05-18T07:42:20.300Z,13.20
2019-05-18T07:44:48.884Z,13.20
2019-05-18T07:47:17.511Z,13.30
2019-05-18T07:49:45.793Z,13.50
2019-05-18T07:52:17.120Z,13.50
2019-05-18T07:54:44.128Z,13.60
2019-05-18T07:57:12.400Z,13.60
2019-05-18T07:59:40.688Z,13.70
2019-05-18T08:02:08.940Z,13.80
2019-05-18T08:04:39.777Z,14.00
2019-05-18T08:07:08.156Z,14.00
2019-05-18T08:09:36.432Z,14.00
2019-05-18T08:12:04.699Z,13.90
2019-05-18T08:14:32.985Z,14.00
2019-05-18T08:17:04.237Z,14.10
2019-05-18T08:19:32.497Z,14.40
2019-05-18T08:22:01.577Z,14.80
2019-05-18T08:24:29.838Z,15.30
2019-05-18T08:26:58.183Z,15.50
2019-05-18T08:29:27.440Z,15.60
2019-05-18T08:31:55.724Z,15.50
2019-05-18T08:34:24.401Z,15.60
2019-05-18T08:36:52.673Z,15.70
2019-05-18T08:39:22.081Z,15.80
2019-05-18T08:41:50.357Z,16.00
2019-05-18T08:44:18.636Z,16.20
2019-05-18T08:46:46.911Z,16.40
2019-05-18T08:49:15.211Z,16.40
2019-05-18T08:51:43.540Z,16.50
2019-05-18T08:54:11.809Z,16.70
2019-05-18T08:56:40.193Z,16.60
2019-05-18T08:59:08.623Z,16.80
2019-05-18T09:01:36.884Z,16.90
2019-05-18T09:04:05.145Z,16.90
2019-05-18T09:06:33.545Z,17.10
2019-05-18T09:09:01.821Z,17.20
2019-05-18T09:11:30.140Z,17.30
2019-05-18T09:13:58.460Z,17.20
2019-05-18T09:16:26.880Z,17.30
2019-05-18T09:18:56.824Z,17.30
2019-05-18T09:21:25.250Z,17.20
2019-05-18T09:23:53.524Z,17.00
2019-05-18T09:26:21.809Z,16.70
2019-05-18T09:28:50.598Z,16.90
2019-05-18T09:31:19.570Z,17.20
2019-05-18T09:33:47.898Z,17.40
2019-05-18T09:36:16.184Z,17.70
2019-05-18T09:38:44.448Z,17.40
2019-05-18T09:41:12.707Z,17.40
2019-05-18T09:43:40.988Z,17.70
2019-05-18T09:46:09.280Z,17.80
2019-05-18T09:48:37.936Z,18.00
2019-05-18T09:51:06.229Z,18.10
2019-05-18T09:53:34.494Z,17.70
2019-05-18T09:56:02.791Z,17.70
2019-05-18T09:58:31.173Z,17.90
2019-05-18T10:00:59.484Z,18.00
2019-05-18T10:03:27.768Z,18.10
2019-05-18T10:05:56.046Z,18.10
2019-05-18T10:08:24.311Z,18.30
2019-05-18T10:10:52.655Z,18.10
2019-05-18T10:13:20.931Z,18.40
2019-05-18T10:15:49.200Z,18.70
2019-05-18T10:18:17.490Z,18.60
2019-05-18T10:20:45.863Z,18.50
2019-05-18T10:23:14.164Z,18.80
2019-05-18T10:25:42.472Z,18.90
2019-05-18T10:28:10.756Z,18.70
2019-05-18T10:30:39.021Z,18.60
2019-05-18T10:33:07.280Z,18.90
2019-05-18T10:35:35.582Z,19.20
2019-05-18T10:38:03.987Z,19.40
2019-05-18T10:40:32.275Z,19.40
2019-05-18T10:43:00.616Z,19.50
2019-05-18T10:45:28.881Z,19.50
2019-05-18T10:47:57.316Z,19.50
2019-05-18T10:50:25.650Z,19.90
2019-05-18T10:52:54.005Z,19.40
2019-05-18T10:55:22.401Z,19.10
2019-05-18T10:57:50.808Z,19.50
2019-05-18T11:00:19.080Z,19.60
2019-05-18T11:02:47.424Z,19.80
2019-05-18T11:05:15.737Z,20.10
2019-05-18T11:07:44.024Z,20.60
2019-05-18T11:10:12.344Z,20.90
2019-05-18T11:13:00.222Z,20.80
2019-05-18T11:15:28.480Z,20.50
2019-05-18T11:17:56.765Z,20.10
2019-05-18T11:20:26.749Z,20.30
2019-05-18T11:22:55.274Z,20.50
2019-05-18T11:25:23.536Z,20.60
2019-05-18T11:27:51.828Z,20.30
2019-05-18T11:30:20.967Z,20.10
2019-05-18T11:32:49.232Z,20.00
2019-05-18T11:35:18.851Z,20.20
2019-05-18T11:37:47.204Z,20.30
2019-05-18T11:40:15.473Z,20.90
2019-05-18T11:42:44.040Z,21.10
2019-05-18T11:45:12.654Z,20.90
2019-05-18T11:47:41.096Z,21.20
2019-05-18T11:50:09.547Z,21.10
2019-05-18T11:52:37.866Z,21.10
2019-05-18T11:55:06.602Z,21.50
2019-05-18T11:57:34.867Z,21.10
2019-05-18T12:00:03.706Z,21.10
2019-05-18T12:02:32.007Z,21.20
2019-05-18T12:05:00.337Z,21.50
2019-05-18T12:07:28.615Z,21.40
2019-05-18T12:09:56.901Z,21.50
2019-05-18T12:12:25.208Z,21.70
2019-05-18T12:14:53.563Z,21.70
2019-05-18T12:17:21.926Z,22.10
2019-05-18T12:19:50.234Z,21.90
2019-05-18T12:22:21.325Z,21.40
2019-05-18T12:24:49.964Z,21.10
2019-05-18T12:27:18.289Z,20.80
2019-05-18T12:29:46.707Z,21.10
2019-05-18T12:32:15.085Z,21.20
2019-05-18T12:34:45.251Z,21.30
2019-05-18T12:37:16.719Z,21.60
2019-05-18T12:39:45.001Z,21.60
2019-05-18T12:42:14.912Z,21.60
2019-05-18T12:44:46.007Z,21.50
2019-05-18T12:47:15.044Z,21.40
2019-05-18T12:49:43.344Z,21.50
2019-05-18T12:52:11.634Z,21.50
2019-05-18T12:54:46.662Z,21.30
2019-05-18T12:57:14.561Z,21.30
2019-05-18T12:59:55.635Z,21.10
2019-05-18T13:02:26.737Z,21.10
2019-05-18T13:04:54.992Z,21.10
2019-05-18T13:07:23.564Z,20.90
2019-05-18T13:09:51.843Z,20.90
2019-05-18T13:12:20.105Z,20.90
2019-05-18T13:14:48.384Z,20.80
2019-05-18T13:17:16.678Z,20.40
2019-05-18T13:19:44.948Z,20.20
2019-05-18T13:22:13.526Z,20.30
2019-05-18T13:24:45.186Z,20.20
2019-05-18T13:27:11.788Z,20.40
2019-05-18T13:29:40.145Z,20.80
2019-05-18T13:32:08.503Z,21.00
2019-05-18T13:34:36.768Z,20.70
2019-05-18T13:37:05.069Z,20.50
2019-05-18T13:39:33.509Z,20.30
2019-05-18T13:42:01.831Z,20.60
2019-05-18T13:44:30.100Z,20.60
2019-05-18T13:46:58.380Z,20.90
2019-05-18T13:49:27.650Z,21.00
2019-05-18T13:51:55.976Z,20.90
2019-05-18T13:54:24.268Z,20.90
2019-05-18T13:56:52.541Z,21.00
2019-05-18T13:59:20.799Z,20.90
2019-05-18T14:01:49.084Z,20.90
2019-05-18T14:04:17.340Z,20.70
2019-05-18T14:06:45.617Z,20.50
2019-05-18T14:09:13.998Z,20.20
2019-05-18T14:11:42.317Z,20.30
2019-05-18T14:14:12.157Z,20.30
2019-05-18T14:16:42.081Z,20.30
2019-05-18T14:19:11.519Z,20.20
2019-05-18T14:21:41.431Z,20.10
2019-05-18T14:24:12.819Z,20.00
2019-05-18T14:26:41.082Z,19.80
2019-05-18T14:29:11.101Z,19.70
2019-05-18T14:31:39.392Z,19.70
2019-05-18T14:34:07.751Z,19.60
2019-05-18T14:36:36.336Z,19.60
2019-05-18T14:39:05.763Z,19.50
2019-05-18T14:41:34.050Z,19.50
2019-05-18T14:44:03.509Z,19.40
2019-05-18T14:46:31.863Z,19.30
2019-05-18T14:49:00.119Z,20.70
2019-05-18T14:51:28.432Z,19.40
2019-05-18T14:53:56.757Z,19.20
2019-05-18T14:56:25.040Z,19.10
2019-05-18T14:58:54.033Z,19.10
2019-05-18T15:01:22.327Z,19.10
2019-05-18T15:03:50.665Z,19.10
2019-05-18T15:06:18.949Z,19.10
2019-05-18T15:08:47.232Z,19.10
2019-05-18T15:11:15.510Z,19.20
2019-05-18T15:13:43.772Z,19.10
2019-05-18T15:16:12.063Z,19.00
2019-05-18T15:18:40.342Z,19.00
2019-05-18T15:21:08.696Z,19.00
2019-05-18T15:23:37.010Z,18.90
2019-05-18T15:26:05.356Z,18.70
2019-05-18T15:28:33.632Z,18.70
2019-05-18T15:31:01.936Z,18.70
2019-05-18T15:33:30.206Z,18.80
2019-05-18T15:35:58.464Z,18.80
2019-05-18T15:38:26.757Z,18.80
2019-05-18T15:40:55.117Z,18.70
2019-05-18T15:43:23.399Z,18.60
2019-05-18T15:45:51.739Z,18.70
2019-05-18T15:48:20.015Z,18.60
2019-05-18T15:50:48.349Z,18.60
2019-05-18T15:53:16.638Z,18.60
2019-05-18T15:55:44.906Z,18.50
2019-05-18T15:58:13.257Z,18.50
2019-05-18T16:00:41.574Z,18.60
2019-05-18T16:03:09.907Z,18.50
2019-05-18T16:05:38.168Z,18.60
2019-05-18T16:08:06.565Z,18.40
2019-05-18T16:10:35.010Z,18.30
2019-05-18T16:13:03.443Z,18.40
2019-05-18T16:15:31.736Z,18.40
2019-05-18T16:17:59.996Z,18.40
2019-05-18T16:20:29.061Z,18.30
2019-05-18T16:22:58.997Z,18.20
2019-05-18T16:25:27.273Z,18.20
2019-05-18T16:27:55.636Z,18.10
2019-05-18T16:30:24.742Z,18.20
2019-05-18T16:32:53.140Z,18.20
2019-05-18T16:35:21.510Z,18.20
2019-05-18T16:37:49.801Z,18.30
2019-05-18T16:40:18.744Z,18.10
2019-05-18T16:42:47.183Z,18.10
2019-05-18T16:45:16.932Z,18.10
2019-05-18T16:47:45.211Z,18.00
2019-05-18T16:50:13.478Z,18.00
2019-05-18T16:52:41.768Z,17.90
2019-05-18T16:55:10.236Z,17.80
2019-05-18T16:57:38.663Z,17.90
2019-05-18T17:00:15.985Z,17.90
2019-05-18T17:02:43.162Z,17.90
2019-05-18T17:05:11.935Z,17.80
2019-05-18T17:07:40.286Z,17.80
2019-05-18T17:10:08.551Z,17.80
2019-05-18T17:12:36.979Z,17.80
2019-05-18T17:15:07.781Z,17.70
2019-05-18T17:17:36.317Z,17.70
2019-05-18T17:20:05.434Z,17.70
2019-05-18T17:22:33.781Z,17.60
2019-05-18T17:25:02.113Z,17.40
2019-05-18T17:27:30.445Z,17.50
2019-05-18T17:29:58.747Z,17.40
2019-05-18T17:32:27.004Z,17.30
2019-05-18T17:34:55.304Z,17.40
2019-05-18T17:37:23.641Z,17.30
2019-05-18T17:39:52.332Z,17.20
2019-05-18T17:42:28.506Z,17.20
2019-05-18T17:45:06.501Z,17.20
2019-05-18T17:47:49.363Z,17.40
2019-05-18T17:50:26.004Z,17.30
2019-05-18T17:53:01.396Z,17.00
2019-05-18T17:55:38.679Z,16.90
2019-05-18T17:58:34.593Z,16.90
2019-05-18T18:01:20.815Z,16.70
2019-05-18T18:03:50.821Z,16.50
2019-05-18T18:06:19.757Z,16.70
2019-05-18T18:08:48.040Z,16.70
2019-05-18T18:11:16.399Z,16.60
2019-05-18T18:13:44.671Z,16.50
2019-05-18T18:16:12.955Z,16.50
2019-05-18T18:18:41.222Z,16.50
2019-05-18T18:21:09.658Z,16.40
2019-05-18T18:23:37.976Z,16.40
2019-05-18T18:26:06.433Z,16.40
2019-05-18T18:28:35.110Z,16.40
2019-05-18T18:31:03.384Z,13.90
2019-05-18T18:33:31.652Z,16.20
2019-05-18T18:35:59.925Z,16.30
2019-05-18T18:38:29.117Z,16.20
2019-05-18T18:40:57.381Z,16.10
2019-05-18T18:43:25.965Z,16.00
2019-05-18T18:45:54.259Z,16.00
2019-05-18T18:48:22.607Z,16.00
2019-05-18T18:50:50.874Z,16.00
2019-05-18T18:53:19.151Z,15.90
2019-05-18T18:55:47.413Z,15.80
2019-05-18T18:58:15.675Z,15.90
2019-05-18T19:00:43.964Z,16.00
2019-05-18T19:03:12.219Z,15.80
2019-05-18T19:05:40.516Z,15.90
2019-05-18T19:08:08.796Z,15.80
2019-05-18T19:10:37.204Z,15.70
2019-05-18T19:13:05.485Z,15.70
2019-05-18T19:15:33.783Z,15.70
2019-05-18T19:18:02.058Z,15.60
2019-05-18T19:20:30.394Z,15.60
2019-05-18T19:22:58.745Z,15.60
2019-05-18T19:25:27.009Z,15.60
2019-05-18T19:27:55.520Z,15.50
2019-05-18T19:30:24.052Z,15.60
2019-05-18T19:32:52.365Z,15.40
2019-05-18T19:35:20.666Z,15.40
2019-05-18T19:37:48.962Z,15.40
2019-05-18T19:40:17.219Z,15.40
2019-05-18T19:42:45.496Z,15.30
2019-05-18T19:45:14.247Z,15.30
2019-05-18T19:47:45.968Z,15.40
2019-05-18T19:50:12.709Z,15.40
2019-05-18T19:52:40.985Z,15.30
2019-05-18T19:55:09.314Z,15.30
2019-05-18T19:57:37.585Z,15.30
2019-05-18T20:00:06.706Z,15.30
2019-05-18T20:02:35.043Z,15.20
2019-05-18T20:05:08.001Z,15.20
2019-05-18T20:07:34.078Z,15.10
2019-05-18T20:10:02.404Z,15.10
2019-05-18T20:12:30.682Z,15.00
2019-05-18T20:14:59.136Z,15.00
2019-05-18T20:17:27.414Z,15.10
2019-05-18T20:19:55.695Z,15.00
2019-05-18T20:22:23.984Z,15.00
2019-05-18T20:24:52.254Z,14.90
2019-05-18T20:27:20.528Z,15.00
2019-05-18T20:29:48.808Z,15.00
2019-05-18T20:32:17.157Z,14.80
2019-05-18T20:34:45.426Z,14.90
2019-05-18T20:37:13.905Z,15.00
2019-05-18T20:39:42.212Z,15.00
2019-05-18T20:42:10.491Z,14.90
2019-05-18T20:44:38.860Z,14.90
2019-05-18T20:47:07.122Z,14.80
2019-05-18T20:49:35.682Z,14.90
2019-05-18T20:52:04.040Z,15.00
2019-05-18T20:54:32.317Z,15.00
2019-05-18T20:57:00.594Z,14.90
2019-05-18T20:59:28.866Z,14.90
2019-05-18T21:01:57.123Z,14.90
2019-05-18T21:04:25.388Z,14.80
2019-05-18T21:06:53.682Z,14.90
2019-05-18T21:09:21.993Z,14.90
2019-05-18T21:11:50.607Z,14.90
2019-05-18T21:14:18.942Z,14.90
2019-05-18T21:16:47.285Z,14.80
2019-05-18T21:19:15.551Z,14.70
2019-05-18T21:21:43.911Z,14.70
2019-05-18T21:24:12.179Z,14.90
2019-05-18T21:26:40.443Z,14.90
2019-05-18T21:29:08.732Z,14.90
2019-05-18T21:31:37.004Z,14.90
2019-05-18T21:34:05.260Z,15.00
2019-05-18T21:36:33.624Z,14.90
2019-05-18T21:39:01.898Z,14.90
2019-05-18T21:41:30.242Z,14.80
2019-05-18T21:43:58.519Z,14.80
2019-05-18T21:46:26.784Z,14.80
2019-05-18T21:48:55.059Z,14.80
2019-05-18T21:51:23.483Z,14.80
2019-05-18T21:53:51.799Z,14.80
2019-05-18T21:56:20.062Z,14.90
2019-05-18T21:58:48.468Z,15.00
2019-05-18T22:01:16.732Z,14.90
2019-05-18T22:03:48.199Z,14.90
2019-05-18T22:06:15.035Z,14.90
2019-05-18T22:08:43.360Z,14.90
2019-05-18T22:11:11.633Z,14.90
2019-05-18T22:13:40.853Z,15.00
2019-05-18T22:16:09.119Z,15.00
2019-05-18T22:18:56.830Z,15.00
2019-05-18T22:21:25.121Z,14.90
2019-05-18T22:23:53.465Z,14.90
2019-05-18T22:26:21.739Z,14.90
2019-05-18T22:28:50.000Z,14.80
2019-05-18T22:31:19.733Z,14.90
2019-05-18T22:33:48.224Z,14.80
2019-05-18T22:36:16.496Z,14.90
2019-05-18T22:38:44.764Z,14.80
2019-05-18T22:41:13.049Z,14.80
2019-05-18T22:43:41.392Z,14.80
2019-05-18T22:46:09.659Z,14.80
2019-05-18T22:48:41.208Z,14.80
2019-05-18T22:51:08.001Z,14.80
2019-05-18T22:53:36.258Z,14.80
2019-05-18T22:56:04.652Z,14.80
2019-05-18T22:58:33.065Z,14.80
2019-05-18T23:01:01.324Z,14.80
2019-05-18T23:03:29.620Z,14.80
2019-05-18T23:05:57.872Z,14.80
2019-05-18T23:08:26.135Z,14.70
2019-05-18T23:10:54.471Z,14.80
2019-05-18T23:13:22.931Z,14.80
2019-05-18T23:15:51.232Z,14.80
2019-05-18T23:18:19.621Z,14.80
2019-05-18T23:20:47.911Z,14.80
2019-05-18T23:23:16.191Z,14.80
2019-05-18T23:25:44.564Z,14.70
2019-05-18T23:28:12.981Z,14.70
2019-05-18T23:30:41.317Z,14.70
2019-05-18T23:33:09.605Z,14.70
2019-05-18T23:35:37.871Z,14.60
2019-05-18T23:38:06.146Z,14.60
2019-05-18T23:40:34.504Z,14.60
2019-05-18T23:43:02.767Z,14.60
2019-05-18T23:45:31.041Z,14.80
2019-05-18T23:47:59.651Z,14.80
2019-05-18T23:50:28.260Z,14.60
2019-05-18T23:52:56.532Z,14.50
2019-05-18T23:55:24.824Z,14.50
2019-05-18T23:57:53.101Z,14.40
